createdAt,value
2022-11-14T00:02:41.694Z,8.10
2022-11-14T00:05:28.971Z,6.88
2022-11-14T00:08:17.252Z,8.55
2022-11-14T00:11:05.955Z,8.15
2022-11-14T00:13:52.832Z,7.53
2022-11-14T00:16:40.335Z,6.70
2022-11-14T00:19:27.333Z,7.57
2022-11-14T00:22:14.371Z,7.60
2022-11-14T00:25:01.419Z,7.55
2022-11-14T00:27:50.095Z,7.65
2022-11-14T00:30:36.900Z,6.78
2022-11-14T00:33:23.914Z,7.82
2022-11-14T00:36:11.070Z,7.38
2022-11-14T00:38:57.896Z,7.07
2022-11-14T00:41:44.891Z,7.40
2022-11-14T00:44:33.477Z,6.63
2022-11-14T00:47:20.401Z,7.53
2022-11-14T00:50:07.953Z,7.28
2022-11-14T00:52:54.846Z,7.07
2022-11-14T00:55:42.126Z,7.20
2022-11-14T00:58:29.377Z,7.10
2022-11-14T01:01:18.351Z,6.72
2022-11-14T01:04:05.505Z,7.85
2022-11-14T01:06:52.567Z,7.30
2022-11-14T01:09:39.581Z,6.95
2022-11-14T01:12:26.845Z,7.07
2022-11-14T01:15:13.541Z,7.53
2022-11-14T01:18:02.073Z,7.32
2022-11-14T01:20:50.135Z,8.02
2022-11-14T01:23:37.454Z,7.38
2022-11-14T01:26:24.652Z,7.43
2022-11-14T01:29:11.915Z,7.25
2022-11-14T01:31:59.135Z,6.82
2022-11-14T01:34:48.021Z,7.43
2022-11-14T01:37:35.206Z,7.78
2022-11-14T01:40:22.416Z,7.93
2022-11-14T01:43:39.592Z,7.35
2022-11-14T01:46:28.354Z,7.05
2022-11-14T01:49:17.334Z,6.90
2022-11-14T01:52:08.046Z,6.85
2022-11-14T01:54:56.161Z,7.50
2022-11-14T01:57:45.506Z,7.25
2022-11-14T02:00:32.557Z,7.93
2022-11-14T02:03:19.861Z,7.13
2022-11-14T02:06:08.422Z,7.30
2022-11-14T02:08:57.634Z,6.93
2022-11-14T02:11:46.116Z,7.28
2022-11-14T02:14:34.761Z,7.72
2022-11-14T02:17:29.511Z,7.82
2022-11-14T02:20:20.135Z,7.72
2022-11-14T02:23:06.795Z,7.55
2022-11-14T02:25:53.961Z,8.38
2022-11-14T02:28:41.076Z,8.18
2022-11-14T02:31:28.394Z,7.57
2022-11-14T02:34:19.780Z,9.13
2022-11-14T02:37:07.903Z,7.38
2022-11-14T02:39:54.862Z,7.18
2022-11-14T02:42:51.209Z,6.82
2022-11-14T02:45:38.101Z,7.53
2022-11-14T02:48:25.617Z,7.85
2022-11-14T02:51:12.552Z,7.93
2022-11-14T02:54:00.873Z,8.57
2022-11-14T02:56:50.016Z,8.13
2022-11-14T02:59:37.377Z,8.40
2022-11-14T03:02:24.257Z,8.43
2022-11-14T03:05:11.530Z,7.65
2022-11-14T03:08:00.770Z,8.10
2022-11-14T03:10:49.102Z,7.88
2022-11-14T03:13:36.076Z,8.00
2022-11-14T03:16:22.808Z,7.93
2022-11-14T03:19:09.994Z,8.55
2022-11-14T03:21:57.116Z,7.43
2022-11-14T03:24:44.086Z,8.65
2022-11-14T03:27:32.382Z,7.80
2022-11-14T03:30:19.133Z,8.50
2022-11-14T03:33:06.005Z,9.73
2022-11-14T03:35:55.729Z,8.77
2022-11-14T03:38:45.372Z,9.52
2022-11-14T03:41:32.390Z,8.15
2022-11-14T03:44:20.705Z,9.85
2022-11-14T03:47:07.511Z,10.05
2022-11-14T03:49:54.563Z,9.75
2022-11-14T03:52:41.768Z,10.43
2022-11-14T03:55:28.676Z,10.13
2022-11-14T03:58:15.575Z,10.27
2022-11-14T04:01:13.832Z,10.32
2022-11-14T04:04:01.250Z,9.90
2022-11-14T04:06:48.181Z,10.02
2022-11-14T04:09:35.215Z,11.48
2022-11-14T04:12:24.149Z,10.20
2022-11-14T04:15:13.709Z,11.13
2022-11-14T04:18:04.265Z,10.35
2022-11-14T04:20:51.157Z,11.93
2022-11-14T04:23:37.918Z,10.70
2022-11-14T04:26:24.846Z,11.13
2022-11-14T04:29:12.090Z,10.68
2022-11-14T04:32:03.651Z,11.18
2022-11-14T04:34:52.022Z,11.15
2022-11-14T04:37:43.274Z,10.65
2022-11-14T04:40:32.352Z,11.48
2022-11-14T04:43:19.458Z,10.70
2022-11-14T04:46:06.581Z,11.82
2022-11-14T04:48:53.661Z,12.43
2022-11-14T04:51:44.209Z,11.75
2022-11-14T04:54:33.600Z,11.93
2022-11-14T04:57:20.747Z,12.23
2022-11-14T05:00:08.403Z,11.73
2022-11-14T05:02:55.451Z,12.68
2022-11-14T05:05:44.623Z,11.90
2022-11-14T05:08:33.227Z,11.13
2022-11-14T05:11:29.149Z,11.32
2022-11-14T05:14:18.532Z,12.00
2022-11-14T05:17:05.516Z,12.90
2022-11-14T05:19:54.877Z,13.85
2022-11-14T05:22:41.679Z,14.32
2022-11-14T05:25:29.975Z,12.73
2022-11-14T05:28:23.434Z,12.70
2022-11-14T05:31:13.738Z,11.75
2022-11-14T05:34:00.497Z,13.05
2022-11-14T05:36:47.417Z,13.27
2022-11-14T05:39:34.124Z,12.23
2022-11-14T05:42:29.467Z,12.45
2022-11-14T05:45:16.620Z,12.93
2022-11-14T05:48:03.509Z,12.35
2022-11-14T05:50:54.531Z,12.98
2022-11-14T05:53:57.776Z,12.80
2022-11-14T05:56:47.347Z,13.45
2022-11-14T05:59:35.489Z,13.48
2022-11-14T06:02:22.465Z,13.70
2022-11-14T06:05:09.685Z,12.60
2022-11-14T06:07:57.320Z,13.25
2022-11-14T06:10:44.305Z,13.23
2022-11-14T06:13:31.785Z,13.57
2022-11-14T06:16:23.313Z,13.02
2022-11-14T06:19:12.668Z,13.60
2022-11-14T06:21:59.395Z,14.05
2022-11-14T06:24:47.446Z,14.02
2022-11-14T06:27:36.478Z,14.43
2022-11-14T06:30:23.767Z,15.32
2022-11-14T06:33:14.183Z,14.05
2022-11-14T06:36:01.459Z,12.48
2022-11-14T06:38:48.534Z,13.35
2022-11-14T06:41:35.556Z,13.93
2022-11-14T06:44:26.442Z,12.43
2022-11-14T06:47:16.736Z,13.43
2022-11-14T06:50:06.104Z,12.65
2022-11-14T06:52:53.086Z,11.68
2022-11-14T06:55:39.964Z,13.82
2022-11-14T06:58:27.944Z,13.50
2022-11-14T07:01:18.108Z,13.85
2022-11-14T07:04:11.798Z,13.82
2022-11-14T07:06:59.954Z,12.38
2022-11-14T07:09:47.033Z,14.25
2022-11-14T07:12:33.886Z,12.63
2022-11-14T07:15:20.939Z,14.07
2022-11-14T07:18:07.788Z,15.00
2022-11-14T07:21:01.154Z,13.10
2022-11-14T07:23:49.424Z,12.95
2022-11-14T07:26:36.210Z,13.52
2022-11-14T07:29:23.278Z,13.88
2022-11-14T07:32:10.643Z,12.43
2022-11-14T07:35:06.876Z,13.23
2022-11-14T07:37:54.461Z,13.52
2022-11-14T07:40:42.910Z,14.10
2022-11-14T07:43:30.207Z,13.43
2022-11-14T07:46:18.715Z,12.95
2022-11-14T07:49:05.499Z,13.63
2022-11-14T07:51:52.683Z,13.63
2022-11-14T07:54:39.694Z,13.73
2022-11-14T07:57:27.764Z,11.90
2022-11-14T08:00:19.620Z,14.10
2022-11-14T08:03:08.291Z,12.52
2022-11-14T08:06:01.398Z,12.48
2022-11-14T08:08:53.143Z,13.40
2022-11-14T08:11:49.379Z,13.80
2022-11-14T08:14:37.686Z,14.20
2022-11-14T08:17:24.870Z,13.77
2022-11-14T08:20:12.228Z,13.30
2022-11-14T08:23:05.663Z,13.05
2022-11-14T08:25:52.767Z,13.45
2022-11-14T08:28:39.748Z,14.52
2022-11-14T08:31:28.104Z,13.48
2022-11-14T08:34:14.966Z,12.38
2022-11-14T08:37:03.119Z,12.48
2022-11-14T08:39:50.173Z,12.38
2022-11-14T08:42:37.562Z,11.07
2022-11-14T08:45:24.389Z,12.20
2022-11-14T08:48:12.874Z,12.65
2022-11-14T08:51:00.504Z,12.80
2022-11-14T08:53:51.640Z,11.80
2022-11-14T08:56:39.464Z,11.95
2022-11-14T08:59:26.476Z,12.68
2022-11-14T09:02:13.764Z,12.90
2022-11-14T09:05:02.276Z,11.43
2022-11-14T09:07:49.123Z,12.10
2022-11-14T09:10:36.649Z,11.00
2022-11-14T09:13:28.594Z,11.27
2022-11-14T09:16:18.006Z,10.88
2022-11-14T09:19:07.548Z,11.02
2022-11-14T09:21:55.839Z,12.15
2022-11-14T09:24:42.923Z,11.70
2022-11-14T09:27:29.946Z,10.68
2022-11-14T09:30:19.538Z,10.57
2022-11-14T09:33:11.461Z,11.27
2022-11-14T09:35:59.465Z,11.05
2022-11-14T09:38:47.958Z,11.68
2022-11-14T09:41:43.369Z,10.85
2022-11-14T09:44:48.813Z,11.77
2022-11-14T09:47:40.444Z,10.35
2022-11-14T09:50:31.724Z,10.15
2022-11-14T09:53:23.076Z,10.35
2022-11-14T09:56:26.075Z,10.60
2022-11-14T09:59:14.209Z,10.27
2022-11-14T10:02:07.708Z,10.73
2022-11-14T10:05:03.458Z,9.65
2022-11-14T10:08:02.601Z,10.95
2022-11-14T10:10:54.276Z,9.52
2022-11-14T10:13:56.823Z,11.32
2022-11-14T10:16:47.555Z,9.90
2022-11-14T10:19:42.955Z,10.55
2022-11-14T10:22:45.636Z,10.82
2022-11-14T10:25:43.703Z,9.73
2022-11-14T10:28:35.713Z,10.00
2022-11-14T10:31:33.202Z,9.80
2022-11-14T10:34:26.524Z,10.65
2022-11-14T10:37:17.574Z,10.23
2022-11-14T10:40:15.622Z,9.90
2022-11-14T10:43:05.281Z,9.45
2022-11-14T10:45:54.097Z,10.18
2022-11-14T10:48:42.794Z,9.75
2022-11-14T10:51:33.818Z,9.40
2022-11-14T10:54:23.867Z,9.30
2022-11-14T10:57:16.414Z,8.95
2022-11-14T11:00:03.665Z,9.02
2022-11-14T11:02:51.983Z,9.50
2022-11-14T11:05:47.296Z,9.48
2022-11-14T11:09:00.084Z,9.43
2022-11-14T11:11:54.329Z,9.35
2022-11-14T11:14:41.642Z,9.48
2022-11-14T11:17:35.071Z,9.18
2022-11-14T11:20:27.479Z,9.95
2022-11-14T11:23:20.383Z,8.70
2022-11-14T11:26:09.713Z,10.35
2022-11-14T11:29:04.427Z,9.05
2022-11-14T11:31:52.804Z,8.90
2022-11-14T11:34:39.676Z,8.55
2022-11-14T11:40:22.076Z,9.27
2022-11-14T11:46:23.308Z,9.15
2022-11-14T11:49:15.074Z,9.55
2022-11-14T11:52:04.976Z,8.93
2022-11-14T11:54:54.222Z,8.88
2022-11-14T11:57:45.518Z,9.02
2022-11-14T12:00:34.022Z,9.80
2022-11-14T12:03:21.977Z,9.35
2022-11-14T12:06:13.199Z,9.80
2022-11-14T12:09:10.175Z,10.18
2022-11-14T12:11:59.608Z,9.00
2022-11-14T12:15:05.606Z,8.75
2022-11-14T12:18:07.399Z,10.02
2022-11-14T12:21:07.517Z,9.68
2022-11-14T12:24:08.947Z,9.02
2022-11-14T12:27:03.620Z,9.80
2022-11-14T12:29:56.821Z,9.75
2022-11-14T12:32:45.907Z,9.05
2022-11-14T12:35:35.101Z,9.93
2022-11-14T12:38:22.669Z,11.43
2022-11-14T12:41:10.961Z,8.80
2022-11-14T12:44:12.947Z,10.57
2022-11-14T12:47:18.406Z,9.07
2022-11-14T12:50:07.302Z,10.38
2022-11-14T12:52:56.596Z,8.55
2022-11-14T12:55:59.445Z,8.85
2022-11-14T12:58:56.035Z,9.18
2022-11-14T13:01:48.762Z,10.73
2022-11-14T13:04:39.935Z,9.20
2022-11-14T13:07:34.382Z,9.15
2022-11-14T13:10:27.883Z,8.35
2022-11-14T13:13:33.800Z,8.13
2022-11-14T13:16:39.448Z,9.95
2022-11-14T13:19:44.493Z,9.77
2022-11-14T13:22:38.432Z,9.18
2022-11-14T13:25:26.958Z,9.63
2022-11-14T13:28:32.368Z,9.32
2022-11-14T13:31:20.964Z,8.70
2022-11-14T13:34:22.570Z,8.43
2022-11-14T13:37:17.033Z,9.35
2022-11-14T13:40:09.566Z,10.25
2022-11-14T13:43:01.213Z,9.93
2022-11-14T13:45:54.185Z,9.90
2022-11-14T13:48:50.159Z,10.00
2022-11-14T13:51:43.477Z,10.52
2022-11-14T13:54:31.889Z,11.20
2022-11-14T13:57:24.050Z,11.63
2022-11-14T14:00:20.011Z,12.02
2022-11-14T14:03:19.922Z,19.33
2022-11-14T14:06:14.079Z,13.13
2022-11-14T14:09:06.685Z,12.48
2022-11-14T14:12:00.372Z,12.27
2022-11-14T14:15:02.468Z,11.23
2022-11-14T14:17:56.654Z,12.20
2022-11-14T14:20:47.160Z,13.27
2022-11-14T14:23:39.184Z,12.25
2022-11-14T14:26:27.869Z,12.27
2022-11-14T14:29:21.386Z,11.13
2022-11-14T14:32:08.918Z,11.77
2022-11-14T14:34:59.488Z,11.52
2022-11-14T14:37:51.834Z,11.40
2022-11-14T14:40:40.024Z,12.52
2022-11-14T14:43:30.920Z,13.15
2022-11-14T14:46:17.643Z,16.33
2022-11-14T14:49:06.443Z,22.33
2022-11-14T14:51:58.597Z,22.20
2022-11-14T14:54:55.635Z,22.13
2022-11-14T14:57:42.719Z,23.10
2022-11-14T15:00:30.101Z,23.25
2022-11-14T15:03:17.010Z,22.85
2022-11-14T15:06:05.962Z,21.83
2022-11-14T15:08:54.321Z,21.33
2022-11-14T15:11:43.184Z,22.25
2022-11-14T15:14:31.612Z,21.55
2022-11-14T15:17:19.067Z,23.38
2022-11-14T15:20:06.616Z,23.67
2022-11-14T15:23:07.371Z,23.52
2022-11-14T15:26:03.889Z,23.15
2022-11-14T15:28:51.648Z,24.48
2022-11-14T15:31:38.644Z,25.63
2022-11-14T15:34:27.539Z,25.23
2022-11-14T15:37:21.202Z,26.83
2022-11-14T15:40:18.908Z,24.85
2022-11-14T15:43:24.780Z,22.67
2022-11-14T15:46:26.740Z,23.83
2022-11-14T15:49:22.040Z,24.58
2022-11-14T15:52:19.375Z,23.85
2022-11-14T15:55:11.178Z,21.98
2022-11-14T15:58:21.554Z,22.55
2022-11-14T16:01:05.807Z,51.20
2022-11-14T16:03:53.008Z,25.92
2022-11-14T16:06:41.638Z,31.15
2022-11-14T16:09:28.832Z,24.15
2022-11-14T16:12:15.565Z,22.05
2022-11-14T16:15:02.692Z,20.00
2022-11-14T16:17:50.243Z,22.08
2022-11-14T16:20:39.725Z,22.00
2022-11-14T16:23:27.999Z,22.13
2022-11-14T16:26:15.644Z,22.20
2022-11-14T16:29:02.539Z,21.85
2022-11-14T16:31:51.866Z,23.17
2022-11-14T16:34:38.811Z,21.83
2022-11-14T16:37:26.001Z,21.73
2022-11-14T16:40:16.303Z,21.02
2022-11-14T16:43:04.184Z,20.45
2022-11-14T16:45:51.013Z,19.52
2022-11-14T16:48:40.806Z,20.20
2022-11-14T16:54:37.115Z,20.55
2022-11-14T16:57:27.554Z,19.95
2022-11-14T17:00:19.944Z,19.25
2022-11-14T17:03:06.712Z,18.23
2022-11-14T17:06:00.275Z,18.75
2022-11-14T17:08:49.707Z,18.63
2022-11-14T17:11:39.490Z,17.27
2022-11-14T17:14:30.279Z,18.33
2022-11-14T17:17:17.265Z,18.55
2022-11-14T17:20:03.962Z,19.23
2022-11-14T17:22:51.236Z,18.40
2022-11-14T17:25:38.006Z,18.40
2022-11-14T17:28:25.234Z,17.80
2022-11-14T17:31:16.186Z,18.30
2022-11-14T17:34:08.357Z,18.63
2022-11-14T17:36:57.996Z,18.42
2022-11-14T17:39:45.403Z,18.70
2022-11-14T17:42:32.212Z,19.23
2022-11-14T17:45:23.047Z,18.42
2022-11-14T17:48:11.596Z,17.77
2022-11-14T17:51:00.985Z,18.88
2022-11-14T17:53:47.927Z,18.55
2022-11-14T17:56:44.329Z,17.40
2022-11-14T17:59:35.282Z,18.30
2022-11-14T18:02:22.390Z,15.63
2022-11-14T18:05:10.787Z,16.27
2022-11-14T18:07:57.723Z,16.60
2022-11-14T18:10:53.227Z,16.52
2022-11-14T18:13:41.190Z,16.33
2022-11-14T18:16:44.547Z,14.85
2022-11-14T18:19:42.000Z,15.45
2022-11-14T18:22:32.644Z,15.00
2022-11-14T18:25:23.561Z,14.65
2022-11-14T18:28:12.615Z,12.35
2022-11-14T18:31:00.056Z,14.00
2022-11-14T18:33:49.327Z,11.52
2022-11-14T18:36:37.563Z,14.55
2022-11-14T18:39:28.963Z,16.00
2022-11-14T18:42:16.665Z,14.00
2022-11-14T18:45:03.850Z,13.75
2022-11-14T18:47:50.966Z,13.93
2022-11-14T18:50:38.017Z,13.50
2022-11-14T18:53:30.198Z,14.82
2022-11-14T18:56:19.441Z,13.10
2022-11-14T18:59:06.615Z,12.90
2022-11-14T19:01:59.395Z,13.23
2022-11-14T19:04:46.733Z,10.73
2022-11-14T19:07:33.739Z,12.02
2022-11-14T19:10:27.767Z,12.30
2022-11-14T19:13:18.344Z,12.77
2022-11-14T19:16:09.898Z,12.85
2022-11-14T19:18:57.017Z,22.08
2022-11-14T19:21:44.042Z,14.45
2022-11-14T19:24:35.157Z,13.60
2022-11-14T19:27:28.076Z,14.45
2022-11-14T19:30:21.309Z,16.55
2022-11-14T19:33:13.066Z,15.25
2022-11-14T19:36:00.881Z,15.80
2022-11-14T19:38:48.140Z,16.35
2022-11-14T19:41:39.662Z,16.65
2022-11-14T19:44:27.495Z,15.65
2022-11-14T19:47:15.847Z,17.83
2022-11-14T19:50:05.707Z,16.83
2022-11-14T19:52:53.093Z,18.13
2022-11-14T19:55:40.561Z,19.15
2022-11-14T19:58:27.952Z,17.48
2022-11-14T20:01:18.093Z,17.10
2022-11-14T20:04:07.354Z,17.02
2022-11-14T20:06:57.179Z,14.75
2022-11-14T20:09:43.733Z,14.50
2022-11-14T20:12:33.294Z,16.30
2022-11-14T20:15:24.739Z,15.18
2022-11-14T20:18:12.145Z,14.82
2022-11-14T20:21:03.613Z,15.10
2022-11-14T20:23:50.972Z,16.63
2022-11-14T20:26:42.145Z,16.25
2022-11-14T20:29:30.712Z,16.77
2022-11-14T20:32:17.410Z,15.38
2022-11-14T20:35:05.019Z,15.00
2022-11-14T20:37:53.306Z,16.48
2022-11-14T20:40:40.788Z,17.02
2022-11-14T20:43:30.068Z,15.43
2022-11-14T20:46:18.198Z,16.13
2022-11-14T20:49:05.189Z,16.40
2022-11-14T20:51:52.538Z,16.10
2022-11-14T20:54:41.066Z,17.80
2022-11-14T20:57:28.487Z,16.88
2022-11-14T21:00:18.231Z,17.00
2022-11-14T21:03:09.845Z,16.00
2022-11-14T21:05:58.988Z,15.85
2022-11-14T21:08:46.002Z,17.48
2022-11-14T21:11:34.340Z,17.83
2022-11-14T21:14:21.580Z,18.45
2022-11-14T21:17:10.760Z,16.88
2022-11-14T21:19:57.620Z,16.13
2022-11-14T21:22:44.569Z,17.83
2022-11-14T21:25:31.730Z,16.20
2022-11-14T21:28:20.074Z,17.35
2022-11-14T21:31:14.735Z,16.88
2022-11-14T21:34:04.825Z,15.75
2022-11-14T21:36:51.956Z,17.63
2022-11-14T21:39:38.883Z,16.55
2022-11-14T21:42:26.000Z,17.17
2022-11-14T21:45:16.704Z,16.65
2022-11-14T21:48:03.723Z,18.17
2022-11-14T21:50:50.857Z,16.98
2022-11-14T21:53:38.986Z,17.85
2022-11-14T21:56:27.532Z,16.60
2022-11-14T21:59:18.946Z,19.08
2022-11-14T22:02:28.277Z,17.45
2022-11-14T22:05:15.639Z,19.02
2022-11-14T22:08:02.419Z,19.63
2022-11-14T22:10:49.818Z,17.98
2022-11-14T22:13:39.289Z,20.35
2022-11-14T22:16:27.479Z,20.20
2022-11-14T22:19:15.590Z,19.15
2022-11-14T22:22:03.022Z,19.02
2022-11-14T22:24:49.855Z,19.92
2022-11-14T22:27:37.434Z,20.42
2022-11-14T22:30:26.816Z,19.45
2022-11-14T22:33:13.918Z,17.80
2022-11-14T22:36:09.042Z,18.63
2022-11-14T22:38:58.863Z,20.63
2022-11-14T22:41:45.334Z,19.85
2022-11-14T22:44:32.759Z,20.17
2022-11-14T22:47:21.985Z,20.20
2022-11-14T22:50:09.733Z,19.92
2022-11-14T22:52:57.749Z,18.92
2022-11-14T22:55:48.981Z,20.45
2022-11-14T22:58:36.558Z,20.50
2022-11-14T23:01:29.782Z,19.90
2022-11-14T23:04:16.605Z,19.95
2022-11-14T23:07:03.486Z,20.05
2022-11-14T23:09:51.963Z,20.15
2022-11-14T23:12:38.967Z,21.75
2022-11-14T23:15:26.320Z,20.33
2022-11-14T23:18:13.312Z,20.88
2022-11-14T23:21:05.017Z,20.42
2022-11-14T23:23:56.377Z,20.65
2022-11-14T23:26:44.625Z,20.40
2022-11-14T23:29:31.285Z,20.90
2022-11-14T23:32:18.310Z,18.13
2022-11-14T23:35:05.576Z,20.25
2022-11-14T23:37:54.932Z,20.58
2022-11-14T23:40:44.404Z,20.50
2022-11-14T23:43:33.133Z,19.58
2022-11-14T23:46:20.114Z,18.90
2022-11-14T23:49:07.099Z,19.30
2022-11-14T23:51:58.778Z,21.88
2022-11-14T23:54:45.742Z,20.10
2022-11-14T23:57:33.127Z,18.63
